sensor_id;sensor_type;location;lat;lon;timestamp;P1;durP1;ratioP1;P2;durP2;ratioP2
76210;SDS011;65003;49.518;11.280;2022-12-15T00:02:12;31.50;;;18.43;;
76210;SDS011;65003;49.518;11.280;2022-12-15T00:04:45;36.13;;;18.17;;
76210;SDS011;65003;49.518;11.280;2022-12-15T00:07:17;33.07;;;17.57;;
76210;SDS011;65003;49.518;11.280;2022-12-15T00:09:49;33.60;;;18.80;;
76210;SDS011;65003;49.518;11.280;2022-12-15T00:12:21;32.70;;;18.23;;
76210;SDS011;65003;49.518;11.280;2022-12-15T00:14:54;36.77;;;19.83;;
76210;SDS011;65003;49.518;11.280;2022-12-15T00:17:26;34.30;;;18.47;;
76210;SDS011;65003;49.518;11.280;2022-12-15T00:19:58;34.87;;;18.43;;
76210;SDS011;65003;49.518;11.280;2022-12-15T00:22:31;36.17;;;19.07;;
76210;SDS011;65003;49.518;11.280;2022-12-15T00:25:03;32.90;;;17.97;;
76210;SDS011;65003;49.518;11.280;2022-12-15T00:27:35;34.40;;;19.30;;
76210;SDS011;65003;49.518;11.280;2022-12-15T00:30:08;38.10;;;19.10;;
76210;SDS011;65003;49.518;11.280;2022-12-15T00:32:41;34.47;;;18.43;;
76210;SDS011;65003;49.518;11.280;2022-12-15T00:35:13;34.83;;;18.13;;
76210;SDS011;65003;49.518;11.280;2022-12-15T00:37:45;34.30;;;18.37;;
76210;SDS011;65003;49.518;11.280;2022-12-15T00:40:18;34.97;;;19.10;;
76210;SDS011;65003;49.518;11.280;2022-12-15T00:42:44;35.67;;;18.80;;
76210;SDS011;65003;49.518;11.280;2022-12-15T00:45:11;37.30;;;18.67;;
76210;SDS011;65003;49.518;11.280;2022-12-15T00:47:37;35.67;;;19.03;;
76210;SDS011;65003;49.518;11.280;2022-12-15T00:50:04;31.97;;;18.53;;
76210;SDS011;65003;49.518;11.280;2022-12-15T00:52:36;33.47;;;18.43;;
76210;SDS011;65003;49.518;11.280;2022-12-15T00:55:09;33.83;;;18.27;;
76210;SDS011;65003;49.518;11.280;2022-12-15T00:57:41;35.60;;;18.03;;
76210;SDS011;65003;49.518;11.280;2022-12-15T01:00:13;33.13;;;18.03;;
76210;SDS011;65003;49.518;11.280;2022-12-15T01:02:45;34.43;;;19.10;;
76210;SDS011;65003;49.518;11.280;2022-12-15T01:05:17;31.50;;;18.30;;
76210;SDS011;65003;49.518;11.280;2022-12-15T01:07:50;33.07;;;17.73;;
76210;SDS011;65003;49.518;11.280;2022-12-15T01:10:22;37.43;;;19.47;;
76210;SDS011;65003;49.518;11.280;2022-12-15T01:12:54;37.10;;;20.00;;
76210;SDS011;65003;49.518;11.280;2022-12-15T01:15:27;35.40;;;19.13;;
76210;SDS011;65003;49.518;11.280;2022-12-15T01:17:59;34.57;;;18.27;;
76210;SDS011;65003;49.518;11.280;2022-12-15T01:20:32;33.50;;;18.17;;
76210;SDS011;65003;49.518;11.280;2022-12-15T01:22:58;34.97;;;18.47;;
76210;SDS011;65003;49.518;11.280;2022-12-15T01:25:25;34.53;;;19.00;;
76210;SDS011;65003;49.518;11.280;2022-12-15T01:27:51;40.37;;;20.40;;
76210;SDS011;65003;49.518;11.280;2022-12-15T01:30:19;35.03;;;19.50;;
76210;SDS011;65003;49.518;11.280;2022-12-15T01:32:45;39.67;;;20.10;;
76210;SDS011;65003;49.518;11.280;2022-12-15T01:35:11;33.33;;;18.80;;
76210;SDS011;65003;49.518;11.280;2022-12-15T01:37:38;34.50;;;19.60;;
76210;SDS011;65003;49.518;11.280;2022-12-15T01:40:05;35.77;;;17.73;;
76210;SDS011;65003;49.518;11.280;2022-12-15T01:42:38;36.07;;;18.60;;
76210;SDS011;65003;49.518;11.280;2022-12-15T01:47:43;38.20;;;18.87;;
76210;SDS011;65003;49.518;11.280;2022-12-15T01:50:12;31.90;;;17.13;;
76210;SDS011;65003;49.518;11.280;2022-12-15T01:52:36;36.57;;;18.93;;
76210;SDS011;65003;49.518;11.280;2022-12-15T01:55:02;36.27;;;19.63;;
76210;SDS011;65003;49.518;11.280;2022-12-15T01:57:30;35.17;;;18.87;;
76210;SDS011;65003;49.518;11.280;2022-12-15T01:59:57;36.23;;;19.43;;
76210;SDS011;65003;49.518;11.280;2022-12-15T02:02:23;33.53;;;19.27;;
76210;SDS011;65003;49.518;11.280;2022-12-15T02:04:49;36.97;;;20.03;;
76210;SDS011;65003;49.518;11.280;2022-12-15T02:07:16;36.00;;;17.37;;
76210;SDS011;65003;49.518;11.280;2022-12-15T02:09:42;32.27;;;18.30;;
76210;SDS011;65003;49.518;11.280;2022-12-15T02:12:13;31.17;;;17.40;;
76210;SDS011;65003;49.518;11.280;2022-12-15T02:14:46;33.50;;;19.03;;
76210;SDS011;65003;49.518;11.280;2022-12-15T02:17:13;33.73;;;17.63;;
76210;SDS011;65003;49.518;11.280;2022-12-15T02:19:59;32.10;;;17.20;;
76210;SDS011;65003;49.518;11.280;2022-12-15T02:22:30;31.47;;;17.43;;
76210;SDS011;65003;49.518;11.280;2022-12-15T02:27:46;30.03;;;17.27;;
76210;SDS011;65003;49.518;11.280;2022-12-15T02:30:34;30.03;;;16.30;;
76210;SDS011;65003;49.518;11.280;2022-12-15T02:33:20;31.33;;;18.13;;
76210;SDS011;65003;49.518;11.280;2022-12-15T02:35:49;35.17;;;17.97;;
76210;SDS011;65003;49.518;11.280;2022-12-15T02:38:15;31.83;;;18.03;;
76210;SDS011;65003;49.518;11.280;2022-12-15T02:40:41;34.33;;;18.47;;
76210;SDS011;65003;49.518;11.280;2022-12-15T02:43:08;34.97;;;19.37;;
76210;SDS011;65003;49.518;11.280;2022-12-15T02:45:45;32.93;;;19.03;;
76210;SDS011;65003;49.518;11.280;2022-12-15T02:48:11;31.73;;;17.77;;
76210;SDS011;65003;49.518;11.280;2022-12-15T02:51:23;35.00;;;17.57;;
76210;SDS011;65003;49.518;11.280;2022-12-15T02:53:40;33.73;;;17.47;;
76210;SDS011;65003;49.518;11.280;2022-12-15T02:56:16;33.80;;;17.47;;
76210;SDS011;65003;49.518;11.280;2022-12-15T02:58:47;31.23;;;17.07;;
76210;SDS011;65003;49.518;11.280;2022-12-15T03:01:15;30.94;;;16.62;;
76210;SDS011;65003;49.518;11.280;2022-12-15T03:03:43;30.43;;;17.50;;
76210;SDS011;65003;49.518;11.280;2022-12-15T03:06:09;29.63;;;17.43;;
76210;SDS011;65003;49.518;11.280;2022-12-15T03:08:36;30.23;;;16.40;;
76210;SDS011;65003;49.518;11.280;2022-12-15T03:11:03;29.70;;;16.33;;
76210;SDS011;65003;49.518;11.280;2022-12-15T03:13:29;35.88;;;18.65;;
76210;SDS011;65003;49.518;11.280;2022-12-15T03:15:56;32.40;;;17.47;;
76210;SDS011;65003;49.518;11.280;2022-12-15T03:18:23;33.17;;;18.43;;
76210;SDS011;65003;49.518;11.280;2022-12-15T03:20:50;33.30;;;18.23;;
76210;SDS011;65003;49.518;11.280;2022-12-15T03:23:17;34.87;;;17.80;;
76210;SDS011;65003;49.518;11.280;2022-12-15T03:25:44;32.37;;;18.27;;
76210;SDS011;65003;49.518;11.280;2022-12-15T03:28:10;30.27;;;17.23;;
76210;SDS011;65003;49.518;11.280;2022-12-15T03:30:36;32.10;;;17.33;;
76210;SDS011;65003;49.518;11.280;2022-12-15T03:33:03;37.77;;;18.53;;
76210;SDS011;65003;49.518;11.280;2022-12-15T03:35:30;30.57;;;17.33;;
76210;SDS011;65003;49.518;11.280;2022-12-15T03:37:56;32.73;;;18.37;;
76210;SDS011;65003;49.518;11.280;2022-12-15T03:40:23;30.27;;;17.37;;
76210;SDS011;65003;49.518;11.280;2022-12-15T03:42:50;35.43;;;18.50;;
76210;SDS011;65003;49.518;11.280;2022-12-15T03:45:18;34.43;;;19.10;;
76210;SDS011;65003;49.518;11.280;2022-12-15T03:47:44;36.40;;;19.03;;
76210;SDS011;65003;49.518;11.280;2022-12-15T03:50:12;37.43;;;19.30;;
76210;SDS011;65003;49.518;11.280;2022-12-15T03:52:38;33.60;;;18.40;;
76210;SDS011;65003;49.518;11.280;2022-12-15T03:55:04;37.60;;;18.70;;
76210;SDS011;65003;49.518;11.280;2022-12-15T03:57:32;34.73;;;18.37;;
76210;SDS011;65003;49.518;11.280;2022-12-15T03:59:58;32.27;;;17.60;;
76210;SDS011;65003;49.518;11.280;2022-12-15T04:02:25;32.63;;;17.55;;
76210;SDS011;65003;49.518;11.280;2022-12-15T04:04:51;30.63;;;18.10;;
76210;SDS011;65003;49.518;11.280;2022-12-15T04:07:19;34.37;;;18.17;;
76210;SDS011;65003;49.518;11.280;2022-12-15T04:09:45;37.23;;;18.60;;
76210;SDS011;65003;49.518;11.280;2022-12-15T04:12:12;34.17;;;18.07;;
76210;SDS011;65003;49.518;11.280;2022-12-15T04:14:38;29.20;;;17.27;;
76210;SDS011;65003;49.518;11.280;2022-12-15T04:17:06;33.33;;;17.33;;
76210;SDS011;65003;49.518;11.280;2022-12-15T04:19:33;36.47;;;18.57;;
76210;SDS011;65003;49.518;11.280;2022-12-15T04:22:05;33.60;;;18.73;;
76210;SDS011;65003;49.518;11.280;2022-12-15T04:24:32;30.50;;;17.00;;
76210;SDS011;65003;49.518;11.280;2022-12-15T04:27:05;32.03;;;17.13;;
76210;SDS011;65003;49.518;11.280;2022-12-15T04:29:37;33.97;;;17.10;;
76210;SDS011;65003;49.518;11.280;2022-12-15T04:32:10;30.83;;;16.50;;
76210;SDS011;65003;49.518;11.280;2022-12-15T04:34:42;32.03;;;18.83;;
76210;SDS011;65003;49.518;11.280;2022-12-15T04:37:14;32.57;;;17.80;;
76210;SDS011;65003;49.518;11.280;2022-12-15T04:39:48;37.10;;;18.03;;
76210;SDS011;65003;49.518;11.280;2022-12-15T04:42:18;32.63;;;18.30;;
76210;SDS011;65003;49.518;11.280;2022-12-15T04:44:51;32.27;;;17.13;;
76210;SDS011;65003;49.518;11.280;2022-12-15T04:47:23;33.87;;;17.93;;
76210;SDS011;65003;49.518;11.280;2022-12-15T04:49:55;35.73;;;18.83;;
76210;SDS011;65003;49.518;11.280;2022-12-15T04:52:27;38.23;;;19.47;;
76210;SDS011;65003;49.518;11.280;2022-12-15T04:55:00;33.80;;;18.23;;
76210;SDS011;65003;49.518;11.280;2022-12-15T04:57:33;33.80;;;17.97;;
76210;SDS011;65003;49.518;11.280;2022-12-15T05:00:05;32.63;;;18.53;;
76210;SDS011;65003;49.518;11.280;2022-12-15T05:02:38;34.57;;;18.00;;
76210;SDS011;65003;49.518;11.280;2022-12-15T05:05:10;33.43;;;19.40;;
76210;SDS011;65003;49.518;11.280;2022-12-15T05:07:43;35.97;;;19.53;;
76210;SDS011;65003;49.518;11.280;2022-12-15T05:10:15;35.30;;;17.83;;
76210;SDS011;65003;49.518;11.280;2022-12-15T05:12:47;33.87;;;17.03;;
76210;SDS011;65003;49.518;11.280;2022-12-15T05:15:19;36.00;;;19.53;;
76210;SDS011;65003;49.518;11.280;2022-12-15T05:17:52;35.70;;;18.70;;
76210;SDS011;65003;49.518;11.280;2022-12-15T05:20:24;34.77;;;17.77;;
76210;SDS011;65003;49.518;11.280;2022-12-15T05:22:56;41.10;;;19.37;;
76210;SDS011;65003;49.518;11.280;2022-12-15T05:25:29;33.93;;;20.60;;
76210;SDS011;65003;49.518;11.280;2022-12-15T05:28:04;38.50;;;20.30;;
76210;SDS011;65003;49.518;11.280;2022-12-15T05:30:37;35.63;;;19.50;;
76210;SDS011;65003;49.518;11.280;2022-12-15T05:33:09;34.60;;;19.07;;
76210;SDS011;65003;49.518;11.280;2022-12-15T05:35:36;34.60;;;18.80;;
76210;SDS011;65003;49.518;11.280;2022-12-15T05:38:03;29.37;;;16.03;;
76210;SDS011;65003;49.518;11.280;2022-12-15T05:40:30;37.60;;;18.90;;
76210;SDS011;65003;49.518;11.280;2022-12-15T05:42:57;34.90;;;18.90;;
76210;SDS011;65003;49.518;11.280;2022-12-15T05:45:24;30.87;;;17.63;;
76210;SDS011;65003;49.518;11.280;2022-12-15T05:47:51;30.37;;;17.33;;
76210;SDS011;65003;49.518;11.280;2022-12-15T05:50:17;36.37;;;18.57;;
76210;SDS011;65003;49.518;11.280;2022-12-15T05:52:43;35.97;;;19.20;;
76210;SDS011;65003;49.518;11.280;2022-12-15T05:55:10;33.03;;;18.47;;
76210;SDS011;65003;49.518;11.280;2022-12-15T05:57:36;34.67;;;20.67;;
76210;SDS011;65003;49.518;11.280;2022-12-15T06:00:04;38.17;;;21.27;;
76210;SDS011;65003;49.518;11.280;2022-12-15T06:02:30;35.23;;;19.80;;
76210;SDS011;65003;49.518;11.280;2022-12-15T06:04:57;34.33;;;19.33;;
76210;SDS011;65003;49.518;11.280;2022-12-15T06:07:23;39.30;;;20.60;;
76210;SDS011;65003;49.518;11.280;2022-12-15T06:09:50;39.70;;;19.57;;
76210;SDS011;65003;49.518;11.280;2022-12-15T06:12:17;44.50;;;21.13;;
76210;SDS011;65003;49.518;11.280;2022-12-15T06:14:45;40.37;;;22.07;;
76210;SDS011;65003;49.518;11.280;2022-12-15T06:17:11;36.60;;;19.47;;
76210;SDS011;65003;49.518;11.280;2022-12-15T06:19:39;38.73;;;20.03;;
76210;SDS011;65003;49.518;11.280;2022-12-15T06:22:05;38.27;;;20.20;;
76210;SDS011;65003;49.518;11.280;2022-12-15T06:24:32;36.87;;;20.93;;
76210;SDS011;65003;49.518;11.280;2022-12-15T06:26:59;38.03;;;19.40;;
76210;SDS011;65003;49.518;11.280;2022-12-15T06:29:26;37.43;;;19.17;;
76210;SDS011;65003;49.518;11.280;2022-12-15T06:31:53;34.30;;;18.80;;
76210;SDS011;65003;49.518;11.280;2022-12-15T06:34:20;37.30;;;19.73;;
76210;SDS011;65003;49.518;11.280;2022-12-15T06:36:46;34.13;;;19.03;;
76210;SDS011;65003;49.518;11.280;2022-12-15T06:39:13;37.60;;;19.90;;
76210;SDS011;65003;49.518;11.280;2022-12-15T06:41:40;38.37;;;19.87;;
76210;SDS011;65003;49.518;11.280;2022-12-15T06:44:06;39.00;;;19.63;;
76210;SDS011;65003;49.518;11.280;2022-12-15T06:46:33;38.10;;;20.93;;
76210;SDS011;65003;49.518;11.280;2022-12-15T06:48:59;38.87;;;20.60;;
76210;SDS011;65003;49.518;11.280;2022-12-15T06:51:27;41.20;;;21.90;;
76210;SDS011;65003;49.518;11.280;2022-12-15T06:53:54;41.30;;;21.07;;
76210;SDS011;65003;49.518;11.280;2022-12-15T06:56:21;41.87;;;21.00;;
76210;SDS011;65003;49.518;11.280;2022-12-15T06:58:56;38.13;;;21.83;;
76210;SDS011;65003;49.518;11.280;2022-12-15T07:01:23;38.90;;;21.63;;
76210;SDS011;65003;49.518;11.280;2022-12-15T07:03:51;39.77;;;21.30;;
76210;SDS011;65003;49.518;11.280;2022-12-15T07:06:17;43.13;;;21.60;;
76210;SDS011;65003;49.518;11.280;2022-12-15T07:08:46;39.83;;;22.43;;
76210;SDS011;65003;49.518;11.280;2022-12-15T07:11:11;38.30;;;20.30;;
76210;SDS011;65003;49.518;11.280;2022-12-15T07:13:36;42.33;;;21.53;;
76210;SDS011;65003;49.518;11.280;2022-12-15T07:16:03;38.90;;;20.23;;
76210;SDS011;65003;49.518;11.280;2022-12-15T07:18:30;39.63;;;21.17;;
76210;SDS011;65003;49.518;11.280;2022-12-15T07:21:02;38.40;;;20.37;;
76210;SDS011;65003;49.518;11.280;2022-12-15T07:23:27;41.67;;;21.97;;
76210;SDS011;65003;49.518;11.280;2022-12-15T07:25:54;38.13;;;20.03;;
76210;SDS011;65003;49.518;11.280;2022-12-15T07:28:21;42.07;;;21.47;;
76210;SDS011;65003;49.518;11.280;2022-12-15T07:30:48;39.17;;;21.53;;
76210;SDS011;65003;49.518;11.280;2022-12-15T07:33:15;40.97;;;20.37;;
76210;SDS011;65003;49.518;11.280;2022-12-15T07:35:42;43.57;;;20.60;;
76210;SDS011;65003;49.518;11.280;2022-12-15T07:38:09;40.07;;;21.97;;
76210;SDS011;65003;49.518;11.280;2022-12-15T07:40:36;38.30;;;20.43;;
76210;SDS011;65003;49.518;11.280;2022-12-15T07:43:03;37.83;;;19.17;;
76210;SDS011;65003;49.518;11.280;2022-12-15T07:45:30;34.77;;;19.03;;
76210;SDS011;65003;49.518;11.280;2022-12-15T07:47:56;37.33;;;19.53;;
76210;SDS011;65003;49.518;11.280;2022-12-15T07:50:23;35.47;;;19.17;;
76210;SDS011;65003;49.518;11.280;2022-12-15T07:52:49;38.97;;;21.03;;
76210;SDS011;65003;49.518;11.280;2022-12-15T07:55:17;32.47;;;17.83;;
76210;SDS011;65003;49.518;11.280;2022-12-15T07:57:43;36.60;;;19.30;;
76210;SDS011;65003;49.518;11.280;2022-12-15T08:00:12;29.83;;;17.60;;
76210;SDS011;65003;49.518;11.280;2022-12-15T08:02:39;30.63;;;18.27;;
76210;SDS011;65003;49.518;11.280;2022-12-15T08:05:07;36.27;;;18.67;;
76210;SDS011;65003;49.518;11.280;2022-12-15T08:07:33;34.20;;;18.73;;
76210;SDS011;65003;49.518;11.280;2022-12-15T08:10:00;36.03;;;17.67;;
76210;SDS011;65003;49.518;11.280;2022-12-15T08:12:27;33.57;;;17.20;;
76210;SDS011;65003;49.518;11.280;2022-12-15T08:14:53;30.03;;;17.60;;
76210;SDS011;65003;49.518;11.280;2022-12-15T08:17:20;30.80;;;17.50;;
76210;SDS011;65003;49.518;11.280;2022-12-15T08:19:46;31.47;;;17.97;;
76210;SDS011;65003;49.518;11.280;2022-12-15T08:22:13;32.80;;;17.83;;
76210;SDS011;65003;49.518;11.280;2022-12-15T08:24:41;32.70;;;18.50;;
76210;SDS011;65003;49.518;11.280;2022-12-15T08:27:07;31.53;;;19.80;;
76210;SDS011;65003;49.518;11.280;2022-12-15T08:29:34;34.27;;;18.37;;
76210;SDS011;65003;49.518;11.280;2022-12-15T08:32:00;40.07;;;21.50;;
76210;SDS011;65003;49.518;11.280;2022-12-15T08:34:27;37.53;;;20.53;;
76210;SDS011;65003;49.518;11.280;2022-12-15T08:36:54;33.43;;;18.87;;
76210;SDS011;65003;49.518;11.280;2022-12-15T08:39:20;37.17;;;18.73;;
76210;SDS011;65003;49.518;11.280;2022-12-15T08:41:48;34.97;;;18.23;;
76210;SDS011;65003;49.518;11.280;2022-12-15T08:44:14;37.80;;;19.53;;
76210;SDS011;65003;49.518;11.280;2022-12-15T08:46:40;36.77;;;18.97;;
76210;SDS011;65003;49.518;11.280;2022-12-15T08:49:08;34.45;;;18.77;;
76210;SDS011;65003;49.518;11.280;2022-12-15T08:51:34;35.17;;;19.70;;
76210;SDS011;65003;49.518;11.280;2022-12-15T08:54:00;38.07;;;20.50;;
76210;SDS011;65003;49.518;11.280;2022-12-15T08:56:27;35.50;;;20.37;;
76210;SDS011;65003;49.518;11.280;2022-12-15T08:58:55;35.43;;;21.50;;
76210;SDS011;65003;49.518;11.280;2022-12-15T09:01:22;38.50;;;21.80;;
76210;SDS011;65003;49.518;11.280;2022-12-15T09:03:49;39.17;;;21.67;;
76210;SDS011;65003;49.518;11.280;2022-12-15T09:06:16;40.70;;;21.67;;
76210;SDS011;65003;49.518;11.280;2022-12-15T09:08:43;39.93;;;21.30;;
76210;SDS011;65003;49.518;11.280;2022-12-15T09:11:09;39.93;;;21.30;;
76210;SDS011;65003;49.518;11.280;2022-12-15T09:13:36;41.93;;;21.60;;
76210;SDS011;65003;49.518;11.280;2022-12-15T09:16:04;38.90;;;21.23;;
76210;SDS011;65003;49.518;11.280;2022-12-15T09:18:33;44.87;;;23.33;;
76210;SDS011;65003;49.518;11.280;2022-12-15T09:21:00;46.83;;;24.80;;
76210;SDS011;65003;49.518;11.280;2022-12-15T09:23:27;42.00;;;23.63;;
76210;SDS011;65003;49.518;11.280;2022-12-15T09:25:58;40.20;;;22.77;;
76210;SDS011;65003;49.518;11.280;2022-12-15T09:28:24;43.30;;;23.03;;
76210;SDS011;65003;49.518;11.280;2022-12-15T09:30:51;40.70;;;22.97;;
76210;SDS011;65003;49.518;11.280;2022-12-15T09:33:18;41.63;;;22.50;;
76210;SDS011;65003;49.518;11.280;2022-12-15T09:35:50;40.50;;;23.47;;
76210;SDS011;65003;49.518;11.280;2022-12-15T09:38:16;42.80;;;21.20;;
76210;SDS011;65003;49.518;11.280;2022-12-15T09:40:43;33.42;;;21.33;;
76210;SDS011;65003;49.518;11.280;2022-12-15T09:43:11;38.27;;;21.03;;
76210;SDS011;65003;49.518;11.280;2022-12-15T09:45:38;37.00;;;19.97;;
76210;SDS011;65003;49.518;11.280;2022-12-15T09:48:05;35.40;;;20.57;;
76210;SDS011;65003;49.518;11.280;2022-12-15T09:50:33;40.27;;;21.47;;
76210;SDS011;65003;49.518;11.280;2022-12-15T09:52:59;41.97;;;21.33;;
76210;SDS011;65003;49.518;11.280;2022-12-15T09:55:27;39.37;;;20.87;;
76210;SDS011;65003;49.518;11.280;2022-12-15T09:57:54;42.97;;;22.47;;
76210;SDS011;65003;49.518;11.280;2022-12-15T10:00:28;38.73;;;21.70;;
76210;SDS011;65003;49.518;11.280;2022-12-15T10:03:16;40.13;;;21.70;;
76210;SDS011;65003;49.518;11.280;2022-12-15T10:05:55;38.43;;;22.67;;
76210;SDS011;65003;49.518;11.280;2022-12-15T10:08:20;39.97;;;21.27;;
76210;SDS011;65003;49.518;11.280;2022-12-15T10:10:56;45.83;;;22.63;;
76210;SDS011;65003;49.518;11.280;2022-12-15T10:13:32;37.43;;;20.97;;
76210;SDS011;65003;49.518;11.280;2022-12-15T10:16:18;42.27;;;22.07;;
76210;SDS011;65003;49.518;11.280;2022-12-15T10:21:34;43.63;;;23.33;;
76210;SDS011;65003;49.518;11.280;2022-12-15T10:24:08;38.20;;;21.37;;
76210;SDS011;65003;49.518;11.280;2022-12-15T10:26:33;39.13;;;20.90;;
76210;SDS011;65003;49.518;11.280;2022-12-15T10:29:08;37.63;;;20.73;;
76210;SDS011;65003;49.518;11.280;2022-12-15T10:31:41;36.40;;;21.83;;
76210;SDS011;65003;49.518;11.280;2022-12-15T10:34:08;38.97;;;22.90;;
76210;SDS011;65003;49.518;11.280;2022-12-15T10:36:34;43.53;;;23.93;;
76210;SDS011;65003;49.518;11.280;2022-12-15T10:39:00;47.87;;;24.40;;
76210;SDS011;65003;49.518;11.280;2022-12-15T10:41:30;44.30;;;22.83;;
76210;SDS011;65003;49.518;11.280;2022-12-15T10:43:54;40.20;;;22.10;;
76210;SDS011;65003;49.518;11.280;2022-12-15T10:46:23;38.23;;;20.90;;
76210;SDS011;65003;49.518;11.280;2022-12-15T10:48:51;36.70;;;20.00;;
76210;SDS011;65003;49.518;11.280;2022-12-15T10:54:02;42.13;;;20.60;;
76210;SDS011;65003;49.518;11.280;2022-12-15T10:56:28;43.53;;;23.57;;
76210;SDS011;65003;49.518;11.280;2022-12-15T10:58:56;34.67;;;20.67;;
76210;SDS011;65003;49.518;11.280;2022-12-15T11:01:24;38.83;;;21.60;;
76210;SDS011;65003;49.518;11.280;2022-12-15T11:03:50;42.70;;;22.70;;
76210;SDS011;65003;49.518;11.280;2022-12-15T11:06:19;45.17;;;25.73;;
76210;SDS011;65003;49.518;11.280;2022-12-15T11:08:44;46.67;;;26.20;;
76210;SDS011;65003;49.518;11.280;2022-12-15T11:14:13;46.73;;;25.40;;
76210;SDS011;65003;49.518;11.280;2022-12-15T11:16:44;40.30;;;24.20;;
76210;SDS011;65003;49.518;11.280;2022-12-15T11:19:11;46.93;;;24.60;;
76210;SDS011;65003;49.518;11.280;2022-12-15T11:21:38;42.20;;;23.13;;
76210;SDS011;65003;49.518;11.280;2022-12-15T11:24:09;41.23;;;23.57;;
76210;SDS011;65003;49.518;11.280;2022-12-15T11:29:19;41.07;;;22.83;;
76210;SDS011;65003;49.518;11.280;2022-12-15T11:31:57;42.83;;;24.77;;
76210;SDS011;65003;49.518;11.280;2022-12-15T11:34:24;46.07;;;27.10;;
76210;SDS011;65003;49.518;11.280;2022-12-15T11:40:25;77.13;;;39.67;;
76210;SDS011;65003;49.518;11.280;2022-12-15T11:42:46;44.37;;;24.97;;
76210;SDS011;65003;49.518;11.280;2022-12-15T11:45:20;41.80;;;23.73;;
76210;SDS011;65003;49.518;11.280;2022-12-15T11:47:47;46.77;;;27.13;;
76210;SDS011;65003;49.518;11.280;2022-12-15T11:50:15;42.80;;;23.47;;
76210;SDS011;65003;49.518;11.280;2022-12-15T11:52:43;42.20;;;23.03;;
76210;SDS011;65003;49.518;11.280;2022-12-15T11:55:27;39.20;;;23.37;;
76210;SDS011;65003;49.518;11.280;2022-12-15T11:58:00;43.27;;;23.93;;
76210;SDS011;65003;49.518;11.280;2022-12-15T12:00:29;50.30;;;26.50;;
76210;SDS011;65003;49.518;11.280;2022-12-15T12:03:17;46.33;;;24.87;;
76210;SDS011;65003;49.518;11.280;2022-12-15T12:05:48;43.17;;;25.17;;
76210;SDS011;65003;49.518;11.280;2022-12-15T12:08:24;49.47;;;26.77;;
76210;SDS011;65003;49.518;11.280;2022-12-15T12:11:02;43.67;;;24.13;;
76210;SDS011;65003;49.518;11.280;2022-12-15T12:13:30;45.00;;;25.90;;
76210;SDS011;65003;49.518;11.280;2022-12-15T12:16:23;50.67;;;29.60;;
76210;SDS011;65003;49.518;11.280;2022-12-15T12:18:47;49.77;;;31.57;;
76210;SDS011;65003;49.518;11.280;2022-12-15T12:21:12;47.17;;;24.27;;
76210;SDS011;65003;49.518;11.280;2022-12-15T12:23:42;46.13;;;23.27;;
76210;SDS011;65003;49.518;11.280;2022-12-15T12:26:31;48.17;;;23.13;;
76210;SDS011;65003;49.518;11.280;2022-12-15T12:28:59;41.90;;;22.83;;
76210;SDS011;65003;49.518;11.280;2022-12-15T12:31:36;37.40;;;22.47;;
76210;SDS011;65003;49.518;11.280;2022-12-15T12:34:01;36.83;;;20.03;;
76210;SDS011;65003;49.518;11.280;2022-12-15T12:36:27;34.03;;;19.37;;
76210;SDS011;65003;49.518;11.280;2022-12-15T12:38:54;35.23;;;20.57;;
76210;SDS011;65003;49.518;11.280;2022-12-15T12:41:24;33.13;;;19.93;;
76210;SDS011;65003;49.518;11.280;2022-12-15T12:43:53;40.43;;;19.97;;
76210;SDS011;65003;49.518;11.280;2022-12-15T12:46:23;35.20;;;19.40;;
76210;SDS011;65003;49.518;11.280;2022-12-15T12:48:58;36.00;;;19.47;;
76210;SDS011;65003;49.518;11.280;2022-12-15T12:51:29;39.73;;;21.60;;
76210;SDS011;65003;49.518;11.280;2022-12-15T12:53:59;41.33;;;23.27;;
76210;SDS011;65003;49.518;11.280;2022-12-15T12:56:29;42.60;;;23.10;;
76210;SDS011;65003;49.518;11.280;2022-12-15T12:58:59;42.37;;;22.33;;
76210;SDS011;65003;49.518;11.280;2022-12-15T13:01:29;42.63;;;22.37;;
76210;SDS011;65003;49.518;11.280;2022-12-15T13:07:06;32.60;;;18.90;;
76210;SDS011;65003;49.518;11.280;2022-12-15T13:09:35;37.63;;;18.73;;
76210;SDS011;65003;49.518;11.280;2022-12-15T13:12:03;33.40;;;19.07;;
76210;SDS011;65003;49.518;11.280;2022-12-15T13:14:34;31.73;;;18.57;;
76210;SDS011;65003;49.518;11.280;2022-12-15T13:17:02;33.80;;;19.10;;
76210;SDS011;65003;49.518;11.280;2022-12-15T13:22:21;31.55;;;18.60;;
76210;SDS011;65003;49.518;11.280;2022-12-15T13:24:45;34.87;;;19.47;;
76210;SDS011;65003;49.518;11.280;2022-12-15T13:27:11;39.77;;;20.30;;
76210;SDS011;65003;49.518;11.280;2022-12-15T13:29:52;31.50;;;18.37;;
76210;SDS011;65003;49.518;11.280;2022-12-15T13:35:20;36.13;;;18.57;;
76210;SDS011;65003;49.518;11.280;2022-12-15T13:40:26;32.40;;;19.30;;
76210;SDS011;65003;49.518;11.280;2022-12-15T13:43:07;33.93;;;18.20;;
76210;SDS011;65003;49.518;11.280;2022-12-15T13:45:43;34.27;;;18.73;;
76210;SDS011;65003;49.518;11.280;2022-12-15T13:48:17;33.73;;;20.20;;
76210;SDS011;65003;49.518;11.280;2022-12-15T13:50:46;33.27;;;19.27;;
76210;SDS011;65003;49.518;11.280;2022-12-15T13:53:16;30.63;;;19.23;;
76210;SDS011;65003;49.518;11.280;2022-12-15T13:55:45;36.20;;;20.50;;
76210;SDS011;65003;49.518;11.280;2022-12-15T13:58:12;33.85;;;19.37;;
76210;SDS011;65003;49.518;11.280;2022-12-15T14:00:38;34.30;;;19.03;;
76210;SDS011;65003;49.518;11.280;2022-12-15T14:03:12;34.70;;;20.40;;
76210;SDS011;65003;49.518;11.280;2022-12-15T14:05:39;37.90;;;20.47;;
76210;SDS011;65003;49.518;11.280;2022-12-15T14:08:13;39.27;;;19.83;;
76210;SDS011;65003;49.518;11.280;2022-12-15T14:10:42;41.33;;;20.67;;
76210;SDS011;65003;49.518;11.280;2022-12-15T14:13:11;36.33;;;21.87;;
76210;SDS011;65003;49.518;11.280;2022-12-15T14:15:40;47.63;;;26.60;;
76210;SDS011;65003;49.518;11.280;2022-12-15T14:18:04;44.33;;;25.27;;
76210;SDS011;65003;49.518;11.280;2022-12-15T14:20:36;45.23;;;24.43;;
76210;SDS011;65003;49.518;11.280;2022-12-15T14:22:57;36.77;;;21.57;;
76210;SDS011;65003;49.518;11.280;2022-12-15T14:25:24;39.87;;;23.17;;
76210;SDS011;65003;49.518;11.280;2022-12-15T14:27:50;42.73;;;23.73;;
76210;SDS011;65003;49.518;11.280;2022-12-15T14:30:19;40.93;;;23.57;;
76210;SDS011;65003;49.518;11.280;2022-12-15T14:32:44;48.27;;;24.10;;
76210;SDS011;65003;49.518;11.280;2022-12-15T14:35:13;39.50;;;21.77;;
76210;SDS011;65003;49.518;11.280;2022-12-15T14:37:39;37.73;;;21.37;;
76210;SDS011;65003;49.518;11.280;2022-12-15T14:40:05;40.23;;;20.80;;
76210;SDS011;65003;49.518;11.280;2022-12-15T14:42:32;38.50;;;20.57;;
76210;SDS011;65003;49.518;11.280;2022-12-15T14:44:59;39.60;;;23.00;;
76210;SDS011;65003;49.518;11.280;2022-12-15T14:47:27;40.43;;;20.80;;
76210;SDS011;65003;49.518;11.280;2022-12-15T14:49:53;33.77;;;20.27;;
76210;SDS011;65003;49.518;11.280;2022-12-15T14:52:27;35.90;;;20.87;;